Time;durP1;ratioP1;P1;durP2;ratioP2;P2;SDS_P1;SDS_P2;PMS_P1;PMS_P2;Temp;Humidity;BMP_temperature;BMP_pressure;BME280_temperature;BME280_humidity;BME280_pressure;Samples;Min_cycle;Max_cycle;Signal;HPM_P1;HPM_P2
2023/08/29 00:01:24;;;;;;;4.80;3.00;;;;;;;24.57;38.61;94249.16;5089806;28;20108;-84
2023/08/29 00:03:51;;;;;;;4.47;2.85;;;;;;;24.62;38.60;94240.59;5088957;28;20111;-84
2023/08/29 00:06:16;;;;;;;5.30;2.92;;;;;;;24.66;38.40;94243.09;5089428;28;20024;-84
2023/08/29 00:08:42;;;;;;;4.90;3.10;;;;;;;24.60;38.48;94242.44;5089219;28;20028;-85
2023/08/29 00:11:07;;;;;;;5.68;3.47;;;;;;;24.64;38.65;94257.66;5070609;28;20020;-85
2023/08/29 00:13:32;;;;;;;7.60;2.88;;;;;;;24.54;38.71;94236.94;5089517;28;20042;-85
2023/08/29 00:15:58;;;;;;;5.43;2.80;;;;;;;24.50;39.06;94244.97;5070362;28;20025;-85
2023/08/29 00:18:23;;;;;;;6.45;2.90;;;;;;;24.57;38.84;94235.13;5071588;28;20026;-86
2023/08/29 00:20:49;;;;;;;4.90;3.45;;;;;;;24.57;38.79;94244.31;5088496;28;20032;-85
2023/08/29 00:23:14;;;;;;;4.70;3.28;;;;;;;24.55;38.98;94246.91;5089434;28;20044;-85
2023/08/29 00:25:40;;;;;;;4.30;2.97;;;;;;;24.56;39.00;94245.59;5088716;28;20028;-84
2023/08/29 00:28:06;;;;;;;4.55;2.83;;;;;;;24.53;38.95;94237.50;5088694;28;20020;-86
2023/08/29 00:30:41;;;;;;;4.38;2.97;;;;;;;24.61;38.92;94250.34;5071155;28;20527;-85
2023/08/29 00:33:08;;;;;;;6.03;3.08;;;;;;;24.62;39.00;94251.84;5069804;28;20077;-83
2023/08/29 00:35:34;;;;;;;7.40;3.25;;;;;;;24.54;38.98;94248.19;5089330;28;20126;-85
2023/08/29 00:37:59;;;;;;;5.05;2.83;;;;;;;24.49;39.05;94248.34;5069560;28;20138;-85
2023/08/29 00:40:30;;;;;;;6.85;3.47;;;;;;;24.48;39.47;94253.19;5088982;28;20045;-84
2023/08/29 00:42:55;;;;;;;4.68;3.00;;;;;;;24.47;39.33;94248.13;5088689;28;20050;-84
2023/08/29 00:45:21;;;;;;;4.70;2.70;;;;;;;24.44;39.29;94249.22;5070287;28;20459;-85
2023/08/29 00:47:47;;;;;;;5.97;3.03;;;;;;;24.40;39.33;94251.59;5070465;28;20017;-83
2023/08/29 00:50:12;;;;;;;5.78;3.13;;;;;;;24.34;39.55;94248.88;5069632;28;20818;-84
2023/08/29 00:52:38;;;;;;;4.15;2.92;;;;;;;24.35;39.60;94253.22;5088819;28;20023;-83
2023/08/29 00:55:03;;;;;;;4.30;3.03;;;;;;;24.35;39.55;94244.81;5087408;28;20028;-84
2023/08/29 00:57:29;;;;;;;5.45;3.35;;;;;;;24.36;39.57;94261.09;5070476;28;20023;-84
2023/08/29 00:59:54;;;;;;;5.20;3.08;;;;;;;24.40;39.52;94254.41;5087705;28;20028;-85
2023/08/29 01:02:20;;;;;;;5.22;3.00;;;;;;;24.42;39.64;94258.16;5088402;28;20054;-82
2023/08/29 01:04:45;;;;;;;5.35;2.70;;;;;;;24.37;39.45;94250.63;5088402;28;20024;-83
2023/08/29 01:07:12;;;;;;;5.63;3.20;;;;;;;24.36;39.70;94246.31;5087688;28;20093;-85
2023/08/29 01:09:37;;;;;;;6.05;3.38;;;;;;;24.31;39.98;94261.94;5070358;28;20028;-84
2023/08/29 01:12:09;;;;;;;4.15;3.00;;;;;;;24.24;39.85;94250.63;5087200;28;20028;-84
2023/08/29 01:14:58;;;;;;;3.92;2.85;;;;;;;24.31;40.08;94255.56;5088541;28;20032;-84
2023/08/29 01:17:35;;;;;;;5.13;2.88;;;;;;;24.24;40.00;94251.38;5069345;28;20115;-85
2023/08/29 01:20:01;;;;;;;3.42;2.97;;;;;;;24.15;40.07;94214.59;5069294;28;20020;-84
2023/08/29 01:22:38;;;;;;;5.55;3.05;;;;;;;24.10;40.30;94219.78;5069921;28;20035;-84
2023/08/29 01:25:18;;;;;;;5.20;2.90;;;;;;;24.11;40.29;94220.53;5065156;28;20135;-85
2023/08/29 01:27:44;;;;;;;4.50;2.45;;;;;;;24.13;40.46;94220.00;5066488;28;20070;-85
2023/08/29 01:30:10;;;;;;;7.22;3.90;;;;;;;24.02;40.51;94206.94;5065583;28;20048;-85
2023/08/29 01:32:36;;;;;;;3.38;2.50;;;;;;;24.00;40.67;94199.06;5067373;28;20036;-83
2023/08/29 01:35:03;;;;;;;5.00;2.80;;;;;;;23.93;40.36;94199.75;5048320;28;20471;-83
2023/08/29 01:37:28;;;;;;;7.63;3.42;;;;;;;23.92;40.79;94211.53;5065801;28;20025;-84
2023/08/29 01:39:54;;;;;;;5.22;2.90;;;;;;;23.72;40.96;94212.94;5067864;28;20376;-85
2023/08/29 01:42:19;;;;;;;3.90;2.97;;;;;;;23.75;41.34;94214.69;5066568;28;20074;-85
2023/08/29 01:44:44;;;;;;;5.60;3.00;;;;;;;23.70;41.13;94209.94;5066366;28;20021;-85
2023/08/29 01:47:10;;;;;;;4.63;3.03;;;;;;;23.64;41.61;94206.47;5064906;28;20040;-84
2023/08/29 01:49:36;;;;;;;6.15;3.22;;;;;;;23.59;41.76;94200.41;5067293;28;20478;-85
2023/08/29 01:52:01;;;;;;;5.35;2.92;;;;;;;23.62;41.27;94212.63;5065519;28;20024;-85
2023/08/29 01:54:27;;;;;;;7.32;3.95;;;;;;;23.56;41.47;94217.56;5065618;28;20034;-83
2023/08/29 01:56:54;;;;;;;7.85;3.33;;;;;;;23.58;41.57;94215.72;5065750;28;20020;-84
2023/08/29 01:59:21;;;;;;;5.32;2.85;;;;;;;23.56;41.60;94215.50;5048238;28;20041;-84
2023/08/29 02:01:46;;;;;;;4.07;3.03;;;;;;;23.50;41.97;94206.44;5067143;28;20024;-85
2023/08/29 02:04:12;;;;;;;5.75;3.30;;;;;;;23.44;42.09;94205.03;5064650;28;20498;-86
2023/08/29 02:06:37;;;;;;;4.55;2.92;;;;;;;23.56;41.79;94220.34;5065880;28;20103;-83
2023/08/29 02:09:03;;;;;;;5.93;3.00;;;;;;;23.60;41.91;94215.19;5066196;28;20021;-84
2023/08/29 02:11:28;;;;;;;5.30;3.00;;;;;;;23.59;41.58;94210.88;5065316;28;20051;-83
2023/08/29 02:13:54;;;;;;;5.95;3.03;;;;;;;23.67;41.40;94216.59;5065271;28;20029;-84
2023/08/29 02:16:19;;;;;;;5.07;3.53;;;;;;;23.64;41.51;94232.47;5066190;28;20021;-84
2023/08/29 02:18:44;;;;;;;6.43;3.13;;;;;;;23.62;41.88;94223.06;5065541;28;20036;-85
2023/08/29 02:21:10;;;;;;;5.80;3.45;;;;;;;23.56;41.52;94221.09;5065705;28;20395;-83
2023/08/29 02:23:35;;;;;;;5.25;3.72;;;;;;;23.47;42.08;94227.16;5074761;28;20044;-84
2023/08/29 02:26:02;;;;;;;6.00;3.30;;;;;;;23.46;41.97;94227.72;5067981;28;20021;-85
2023/08/29 02:28:28;;;;;;;4.55;3.30;;;;;;;23.46;41.84;94222.84;5087071;28;20036;-83
2023/08/29 02:30:54;;;;;;;5.15;2.85;;;;;;;23.42;42.35;94222.41;5086170;28;20020;-84
2023/08/29 02:33:19;;;;;;;4.47;2.95;;;;;;;23.42;42.19;94208.41;5068325;28;20098;-84
2023/08/29 02:35:45;;;;;;;5.88;2.90;;;;;;;23.36;42.39;94199.34;5087199;28;20032;-84
2023/08/29 02:38:10;;;;;;;4.75;3.03;;;;;;;23.46;42.17;94202.47;5086427;28;20398;-84
2023/08/29 02:40:35;;;;;;;4.47;3.08;;;;;;;23.47;42.05;94195.56;5087195;28;20100;-85
2023/08/29 02:43:01;;;;;;;4.55;3.50;;;;;;;23.46;42.04;94211.63;5085885;28;20558;-83
2023/08/29 02:45:26;;;;;;;5.15;3.33;;;;;;;23.46;42.32;94206.03;5087057;28;20171;-83
2023/08/29 02:47:52;;;;;;;7.18;3.40;;;;;;;23.33;42.18;94206.00;5089885;28;20028;-83
2023/08/29 02:50:17;;;;;;;5.13;3.35;;;;;;;23.45;42.04;94209.34;5091047;28;20440;-82
2023/08/29 02:52:43;;;;;;;5.78;3.35;;;;;;;23.39;42.31;94212.25;5090537;28;20028;-83
2023/08/29 02:55:08;;;;;;;4.45;3.28;;;;;;;23.31;42.23;94209.34;5071880;28;20097;-83
2023/08/29 02:57:34;;;;;;;3.72;2.70;;;;;;;23.31;42.73;94217.03;5072473;28;20024;-83
2023/08/29 02:59:59;;;;;;;5.60;2.40;;;;;;;23.37;42.33;94217.66;5089829;28;20026;-84
2023/08/29 03:02:25;;;;;;;3.88;3.13;;;;;;;23.28;42.71;94213.25;5072501;28;20020;-83
2023/08/29 03:04:50;;;;;;;4.78;3.30;;;;;;;23.30;42.61;94224.69;5089391;28;20103;-84
2023/08/29 03:07:15;;;;;;;11.23;3.40;;;;;;;23.30;42.60;94219.06;5090705;28;20038;-83
2023/08/29 03:09:41;;;;;;;7.43;3.80;;;;;;;23.33;42.48;94217.97;5089803;28;20024;-84
2023/08/29 03:12:07;;;;;;;6.15;3.55;;;;;;;23.33;42.72;94226.38;5090505;28;20060;-84
2023/08/29 03:14:32;;;;;;;5.47;3.58;;;;;;;23.31;42.59;94220.56;5089649;28;20032;-84
2023/08/29 03:16:57;;;;;;;5.18;3.22;;;;;;;23.36;42.83;94223.81;5089832;28;20174;-85
2023/08/29 03:19:23;;;;;;;9.18;3.80;;;;;;;23.29;42.52;94211.19;5072364;28;20024;-85
2023/08/29 03:21:48;;;;;;;5.30;3.50;;;;;;;23.26;43.00;94215.81;5071125;28;20020;-84
2023/08/29 03:24:14;;;;;;;3.95;3.53;;;;;;;23.21;43.10;94210.31;5072551;28;20555;-84
2023/08/29 03:26:39;;;;;;;6.13;3.70;;;;;;;23.20;43.01;94212.38;5070823;28;20551;-84
2023/08/29 03:29:04;;;;;;;6.60;3.92;;;;;;;23.17;42.96;94198.66;5072044;28;20040;-84
2023/08/29 03:31:30;;;;;;;4.13;3.72;;;;;;;23.19;43.28;94204.50;5089482;28;20462;-85
2023/08/29 03:33:55;;;;;;;11.18;4.30;;;;;;;23.15;43.27;94202.00;5089446;28;20024;-84
2023/08/29 03:36:21;;;;;;;5.13;3.65;;;;;;;23.10;43.25;94188.09;5071790;28;20024;-85
2023/08/29 03:38:46;;;;;;;6.22;3.60;;;;;;;23.12;43.10;94203.09;5089088;28;20028;-84
2023/08/29 03:41:11;;;;;;;5.13;3.78;;;;;;;23.10;43.02;94202.09;5090382;28;20056;-85
2023/08/29 03:43:37;;;;;;;5.00;3.47;;;;;;;23.08;43.47;94202.66;5070518;28;20020;-84
2023/08/29 03:46:07;;;;;;;5.20;3.65;;;;;;;23.02;43.63;94205.56;5090273;28;20031;-82
2023/08/29 03:48:33;;;;;;;6.93;4.35;;;;;;;22.98;43.64;94191.09;5071171;28;20020;-84
2023/08/29 03:51:01;;;;;;;7.40;4.35;;;;;;;22.92;43.79;94192.50;5071740;28;20374;-85
2023/08/29 03:53:27;;;;;;;6.82;4.35;;;;;;;22.90;43.83;94186.69;5089412;28;20069;-84
2023/08/29 03:55:52;;;;;;;5.15;3.80;;;;;;;22.89;43.98;94188.72;5089033;28;20107;-84
2023/08/29 03:58:17;;;;;;;7.65;4.10;;;;;;;22.75;43.99;94173.88;5089267;28;20047;-85
2023/08/29 04:00:44;;;;;;;6.15;3.95;;;;;;;22.81;43.82;94187.81;5070184;28;20043;-82
2023/08/29 04:03:10;;;;;;;7.97;4.28;;;;;;;22.70;44.23;94180.34;5071855;28;20027;-84
2023/08/29 04:05:36;;;;;;;8.10;4.78;;;;;;;22.67;44.09;94192.63;5069871;28;20036;-82
2023/08/29 04:08:05;;;;;;;10.60;4.53;;;;;;;22.55;44.65;94177.28;5071035;28;20448;-82
2023/08/29 04:10:41;;;;;;;6.63;4.18;;;;;;;22.56;44.54;94180.84;5088689;28;20032;-84
2023/08/29 04:13:07;;;;;;;7.90;4.18;;;;;;;22.50;45.12;94192.16;5070562;28;20035;-83
2023/08/29 04:15:33;;;;;;;6.85;4.28;;;;;;;22.50;45.11;94192.16;5089562;28;20157;-84
2023/08/29 04:17:59;;;;;;;8.88;4.70;;;;;;;22.43;45.31;94187.16;5070107;28;20048;-84
2023/08/29 04:20:25;;;;;;;8.15;4.72;;;;;;;22.37;45.08;94184.47;5071328;28;20039;-85
2023/08/29 04:22:51;;;;;;;9.77;4.70;;;;;;;22.35;45.47;94178.63;5070364;28;20016;-84
2023/08/29 04:25:16;;;;;;;5.88;3.92;;;;;;;22.35;45.43;94181.41;5071951;28;20483;-86
2023/08/29 04:27:42;;;;;;;9.57;4.55;;;;;;;22.41;45.36;94178.53;5089150;28;20020;-84
2023/08/29 04:30:08;;;;;;;9.75;4.85;;;;;;;22.40;45.36;94174.97;5088936;28;20100;-84
2023/08/29 04:32:37;;;;;;;9.88;4.70;;;;;;;22.44;45.32;94183.06;5088814;28;20024;-84
2023/08/29 04:35:06;;;;;;;7.20;4.47;;;;;;;22.40;45.66;94188.22;5087916;28;20116;-84
2023/08/29 04:37:32;;;;;;;9.20;4.38;;;;;;;22.38;45.79;94188.00;5089377;28;20455;-84
2023/08/29 04:39:58;;;;;;;7.63;4.78;;;;;;;22.44;45.58;94200.63;5088984;28;20103;-84
2023/08/29 04:42:24;;;;;;;9.00;5.05;;;;;;;22.46;45.43;94194.50;5093018;28;20020;-86
2023/08/29 04:44:51;;;;;;;8.63;4.13;;;;;;;22.43;45.42;94189.97;5092298;28;20498;-84
2023/08/29 04:47:16;;;;;;;9.85;5.03;;;;;;;22.47;45.94;94188.34;5112142;28;20028;-86
2023/08/29 04:49:42;;;;;;;12.40;5.40;;;;;;;22.47;45.54;94185.56;5096643;28;20024;-86
2023/08/29 04:52:07;;;;;;;12.52;4.68;;;;;;;22.56;45.83;94198.41;5071476;28;20035;-84
2023/08/29 04:54:32;;;;;;;7.00;4.53;;;;;;;22.58;45.39;94195.06;5089496;28;20414;-85
2023/08/29 04:56:58;;;;;;;8.70;4.53;;;;;;;22.64;45.34;94193.69;5088033;28;20021;-85
2023/08/29 04:59:23;;;;;;;8.18;4.63;;;;;;;22.64;45.33;94182.47;5089376;28;20419;-85
2023/08/29 05:02:23;;;;;;;8.43;4.55;;;;;;;22.75;45.29;94182.28;5088550;28;20024;-88
2023/08/29 05:04:48;;;;;;;8.98;4.55;;;;;;;22.64;45.64;94143.25;5054111;28;20029;-86
2023/08/29 05:07:14;;;;;;;9.98;4.70;;;;;;;22.75;45.38;94161.94;5053240;28;20028;-86
2023/08/29 05:09:39;;;;;;;9.45;4.68;;;;;;;22.75;45.40;94157.06;5053108;28;20446;-87
2023/08/29 05:12:10;;;;;;;8.38;5.13;;;;;;;22.88;45.38;94173.22;5053744;28;20230;-87
2023/08/29 05:14:35;;;;;;;12.85;4.88;;;;;;;22.98;45.47;94165.88;5069721;28;20066;-88
2023/08/29 05:17:01;;;;;;;10.57;5.32;;;;;;;22.91;45.78;94152.50;5070888;28;20044;-87
2023/08/29 05:19:26;;;;;;;12.50;5.60;;;;;;;22.99;45.56;94163.81;5053235;28;20032;-87
2023/08/29 05:21:52;;;;;;;7.50;4.40;;;;;;;23.05;45.28;94172.88;5070741;28;20054;-88
2023/08/29 05:24:17;;;;;;;9.82;4.70;;;;;;;23.10;45.05;94168.47;5052779;28;20121;-86
2023/08/29 05:26:44;;;;;;;9.85;4.32;;;;;;;23.17;44.85;94165.03;5052895;28;20075;-87
2023/08/29 05:29:10;;;;;;;8.93;4.60;;;;;;;23.24;44.87;94151.13;5053800;28;20020;-87
2023/08/29 05:31:35;;;;;;;9.52;4.10;;;;;;;23.25;44.53;94149.06;5087316;28;20016;-87
2023/08/29 05:34:00;;;;;;;8.60;4.10;;;;;;;23.37;44.10;94160.81;5053662;28;20036;-87
2023/08/29 05:36:26;;;;;;;7.80;4.25;;;;;;;23.51;43.24;94154.69;5052462;28;20038;-86
2023/08/29 05:38:51;;;;;;;8.68;4.40;;;;;;;23.44;43.47;94158.13;5053194;28;20028;-86
2023/08/29 05:41:16;;;;;;;6.97;3.97;;;;;;;23.56;43.56;94181.09;5069270;28;20047;-86
2023/08/29 05:43:42;;;;;;;5.13;3.80;;;;;;;23.54;43.26;94178.06;5052973;28;20036;-84
2023/08/29 05:46:07;;;;;;;7.05;4.10;;;;;;;23.50;43.39;94164.38;5069176;28;20020;-87
2023/08/29 05:48:33;;;;;;;6.57;3.90;;;;;;;23.59;43.09;94177.97;5086669;28;20402;-87
2023/08/29 05:50:58;;;;;;;6.85;3.88;;;;;;;23.55;43.13;94160.69;5068846;28;20073;-86
2023/08/29 05:53:23;;;;;;;7.38;3.90;;;;;;;23.53;42.62;94154.88;5067956;28;20484;-86
2023/08/29 05:55:49;;;;;;;4.60;3.35;;;;;;;23.47;42.32;94154.25;5087410;28;20023;-88
2023/08/29 05:58:15;;;;;;;4.70;2.88;;;;;;;23.49;42.29;94162.88;5051215;28;20035;-86
2023/08/29 06:00:41;;;;;;;6.65;3.50;;;;;;;23.51;42.28;94160.28;5051759;28;20327;-89
2023/08/29 06:03:07;;;;;;;7.18;3.67;;;;;;;23.52;42.51;94167.41;5067026;28;20032;-86
2023/08/29 06:05:33;;;;;;;7.65;3.70;;;;;;;23.47;42.30;94159.09;5051443;28;20035;-87
2023/08/29 06:08:02;;;;;;;6.10;3.30;;;;;;;23.58;42.79;94179.25;5067849;28;20440;-85
2023/08/29 06:10:28;;;;;;;9.63;4.53;;;;;;;23.64;43.09;94170.00;5052744;28;20028;-87
2023/08/29 06:12:54;;;;;;;5.88;3.35;;;;;;;23.81;41.24;94181.63;5067368;28;20499;-86
2023/08/29 06:15:19;;;;;;;7.63;3.40;;;;;;;23.96;40.94;94192.28;5051745;28;20032;-86
2023/08/29 06:17:45;;;;;;;4.43;3.30;;;;;;;24.01;41.10;94174.56;5051665;28;20028;-86
2023/08/29 06:20:11;;;;;;;7.18;3.70;;;;;;;24.06;41.21;94179.31;5052964;28;20549;-86
2023/08/29 06:22:37;;;;;;;5.60;3.83;;;;;;;24.12;42.13;94160.28;5070715;28;20036;-86
2023/08/29 06:25:04;;;;;;;10.13;4.60;;;;;;;24.29;42.43;94166.25;5068390;28;20139;-86
2023/08/29 06:27:29;;;;;;;8.13;3.90;;;;;;;24.42;42.22;94162.66;5051503;28;20028;-85
2023/08/29 06:29:55;;;;;;;7.10;4.40;;;;;;;24.54;42.16;94163.16;5053830;28;20024;-87
2023/08/29 06:32:20;;;;;;;10.60;5.07;;;;;;;24.65;42.34;94168.50;5052395;28;20440;-86
2023/08/29 06:34:46;;;;;;;8.68;4.55;;;;;;;24.78;41.75;94167.69;5086944;28;20024;-87
2023/08/29 06:37:11;;;;;;;11.30;5.00;;;;;;;24.97;41.37;94182.28;5065465;28;20202;-86
2023/08/29 06:39:36;;;;;;;7.32;4.47;;;;;;;25.06;41.14;94167.75;5068069;28;20425;-86
2023/08/29 06:42:02;;;;;;;9.60;5.05;;;;;;;25.24;41.17;94166.00;5050406;28;20032;-86
2023/08/29 06:44:27;;;;;;;10.32;4.20;;;;;;;25.36;40.42;94174.91;5068128;28;20066;-86
2023/08/29 06:46:53;;;;;;;9.82;4.60;;;;;;;25.51;40.77;94174.22;5051341;28;20035;-86
2023/08/29 06:49:18;;;;;;;9.38;4.35;;;;;;;25.62;40.02;94171.84;5067890;28;20504;-87
2023/08/29 06:51:44;;;;;;;8.05;4.30;;;;;;;25.70;40.02;94163.47;5050798;28;20028;-86
2023/08/29 06:54:09;;;;;;;7.40;4.82;;;;;;;25.87;39.61;94160.19;5086461;28;20035;-86
2023/08/29 06:56:34;;;;;;;9.45;4.70;;;;;;;25.98;39.38;94167.53;5086561;28;20024;-87
2023/08/29 06:59:00;;;;;;;8.02;4.20;;;;;;;26.12;38.84;94154.81;5085288;28;20103;-87
2023/08/29 07:01:25;;;;;;;9.48;5.00;;;;;;;26.20;38.52;94164.78;5085720;28;20061;-86
2023/08/29 07:03:51;;;;;;;6.28;4.25;;;;;;;26.33;38.49;94161.06;5067334;28;20435;-87
2023/08/29 07:06:17;;;;;;;6.38;4.53;;;;;;;26.34;38.01;94156.19;5068406;28;20047;-86
2023/08/29 07:08:42;;;;;;;6.93;4.00;;;;;;;26.47;37.84;94162.44;5052729;28;20074;-88
2023/08/29 07:11:08;;;;;;;11.20;4.68;;;;;;;26.52;37.33;94172.03;5053452;28;20233;-85
2023/08/29 07:13:33;;;;;;;9.75;4.38;;;;;;;26.69;37.06;94180.69;5052407;28;20430;-87
2023/08/29 07:15:58;;;;;;;9.23;4.18;;;;;;;26.66;37.26;94161.31;5050695;28;20114;-87
2023/08/29 07:18:24;;;;;;;7.63;4.07;;;;;;;26.69;37.23;94169.44;5086489;28;20556;-86
2023/08/29 07:20:50;;;;;;;9.50;4.47;;;;;;;26.88;36.85;94182.41;5067857;28;20471;-87
2023/08/29 07:23:16;;;;;;;5.82;4.00;;;;;;;26.86;36.74;94165.31;5068012;28;20520;-86
2023/08/29 07:25:45;;;;;;;8.32;4.00;;;;;;;26.97;36.79;94170.56;5067786;28;20047;-87
2023/08/29 07:28:15;;;;;;;10.25;4.13;;;;;;;27.10;36.12;94187.31;5086517;28;20024;-86
2023/08/29 07:30:45;;;;;;;7.05;3.83;;;;;;;27.16;35.99;94167.38;5068657;28;20032;-86
2023/08/29 07:33:12;;;;;;;7.13;3.95;;;;;;;27.17;35.67;94166.06;5051578;28;20034;-88
2023/08/29 07:35:38;;;;;;;11.82;3.80;;;;;;;27.26;35.79;94163.44;5055084;28;20035;-87
2023/08/29 07:38:04;;;;;;;6.57;3.72;;;;;;;27.44;35.52;94178.44;5070983;28;20038;-88
2023/08/29 07:40:29;;;;;;;10.45;4.05;;;;;;;27.51;35.20;94176.94;5071592;28;20023;-87
2023/08/29 07:42:55;;;;;;;8.40;3.50;;;;;;;27.65;34.68;94185.94;5054174;28;20028;-87
2023/08/29 07:45:20;;;;;;;8.00;3.55;;;;;;;27.68;34.59;94179.16;5072760;28;20108;-87
2023/08/29 07:47:46;;;;;;;5.38;3.58;;;;;;;27.63;34.73;94165.97;5072307;28;20024;-86
2023/08/29 07:50:11;;;;;;;6.63;3.78;;;;;;;27.70;34.37;94170.88;5089274;28;20104;-87
2023/08/29 07:52:37;;;;;;;8.13;3.80;;;;;;;27.71;33.83;94161.84;5057121;28;20366;-86
2023/08/29 07:55:04;;;;;;;7.57;3.75;;;;;;;27.75;34.04;94167.84;5072491;28;20470;-85
2023/08/29 07:57:30;;;;;;;7.43;3.80;;;;;;;27.81;34.39;94156.34;5073499;28;20066;-87
2023/08/29 07:59:55;;;;;;;8.20;3.75;;;;;;;27.98;34.58;94162.13;5089839;28;20047;-86
2023/08/29 08:02:20;;;;;;;5.50;3.97;;;;;;;28.05;34.30;94149.31;5054851;28;20114;-87
2023/08/29 08:04:46;;;;;;;5.75;4.00;;;;;;;28.23;33.88;94156.56;5055408;28;20706;-87
2023/08/29 08:07:12;;;;;;;8.27;3.80;;;;;;;28.41;33.55;94151.03;5055275;28;20032;-87
2023/08/29 08:09:37;;;;;;;5.72;3.63;;;;;;;28.52;33.62;94154.16;5090295;28;20029;-87
2023/08/29 08:12:03;;;;;;;9.45;4.13;;;;;;;28.64;33.35;94145.22;5054053;28;20039;-87
2023/08/29 08:14:28;;;;;;;6.95;3.60;;;;;;;28.81;32.87;94154.53;5071705;28;20020;-87
2023/08/29 08:16:54;;;;;;;5.10;3.75;;;;;;;28.95;32.71;94149.34;5063788;28;20024;-87
2023/08/29 08:19:19;;;;;;;5.05;3.83;;;;;;;29.10;32.39;94146.41;5088054;28;20020;-87
2023/08/29 08:21:45;;;;;;;8.15;3.42;;;;;;;29.19;32.07;94145.00;5096599;28;20024;-86
2023/08/29 08:24:10;;;;;;;7.07;3.45;;;;;;;29.21;31.99;94131.03;5095609;28;20076;-88
2023/08/29 08:26:36;;;;;;;8.00;3.65;;;;;;;29.27;31.90;94127.94;5057893;28;20021;-87
2023/08/29 08:29:03;;;;;;;6.75;3.45;;;;;;;29.43;32.05;94137.06;5055750;28;20024;-87
2023/08/29 08:31:29;;;;;;;9.60;4.57;;;;;;;29.52;31.77;94133.53;5055513;28;20047;-87
2023/08/29 08:33:56;;;;;;;6.22;3.47;;;;;;;29.57;31.90;94119.16;5054546;28;20036;-86
2023/08/29 08:36:21;;;;;;;6.57;3.67;;;;;;;29.77;32.09;94127.84;5090181;28;20454;-86
2023/08/29 08:38:47;;;;;;;6.40;3.80;;;;;;;29.93;31.46;94123.47;5088921;28;20047;-86
2023/08/29 08:41:12;;;;;;;8.75;4.55;;;;;;;30.07;31.06;94109.72;5071341;28;20024;-87
2023/08/29 08:43:38;;;;;;;9.13;4.10;;;;;;;30.28;30.70;94118.53;5069997;28;20414;-86
2023/08/29 08:46:04;;;;;;;6.82;4.38;;;;;;;30.45;30.63;94111.28;5054364;28;20486;-87
2023/08/29 08:48:30;;;;;;;7.60;3.90;;;;;;;30.73;29.82;94113.53;5053844;28;20021;-87
2023/08/29 08:50:56;;;;;;;4.35;3.55;;;;;;;30.93;29.33;94114.34;5054299;28;20031;-87
2023/08/29 08:53:21;;;;;;;6.32;3.78;;;;;;;31.13;29.33;94123.66;5071959;28;20024;-86
2023/08/29 08:55:49;;;;;;;7.43;4.32;;;;;;;31.40;29.20;94117.91;5070346;28;20035;-87
2023/08/29 08:58:15;;;;;;;7.15;3.67;;;;;;;31.64;28.15;94105.53;5054499;28;20092;-87
2023/08/29 09:00:40;;;;;;;6.38;3.95;;;;;;;31.82;27.72;94109.00;5053601;28;20027;-88
2023/08/29 09:03:06;;;;;;;7.95;3.58;;;;;;;32.03;27.92;94122.59;5088642;28;20020;-87
2023/08/29 09:05:32;;;;;;;7.10;4.10;;;;;;;32.14;28.00;94112.72;5070030;28;20028;-87
2023/08/29 09:07:59;;;;;;;6.32;3.72;;;;;;;32.21;27.26;94115.38;5088684;28;20024;-87
2023/08/29 09:10:24;;;;;;;5.20;3.85;;;;;;;32.18;27.91;94102.38;5053697;28;20051;-85
2023/08/29 09:12:55;;;;;;;4.75;3.75;;;;;;;32.30;27.21;94108.19;5069473;28;20024;-87
2023/08/29 09:15:21;;;;;;;7.07;3.95;;;;;;;32.27;27.60;94098.03;5053194;28;20028;-86
2023/08/29 09:17:48;;;;;;;5.63;4.00;;;;;;;32.29;26.97;94095.34;5071891;28;20027;-87
2023/08/29 09:20:14;;;;;;;9.57;3.90;;;;;;;32.28;26.80;94101.59;5070649;28;20024;-88
2023/08/29 09:22:43;;;;;;;5.53;4.15;;;;;;;32.24;27.34;94094.28;5055014;28;20023;-87
2023/08/29 09:25:10;;;;;;;6.32;4.25;;;;;;;32.28;27.53;94090.97;5066658;28;20086;-88
2023/08/29 09:27:47;;;;;;;7.22;3.85;;;;;;;32.22;27.57;94094.13;5066234;28;20036;-88
2023/08/29 09:30:16;;;;;;;9.57;4.00;;;;;;;32.15;27.42;94097.91;5066299;28;20479;-87
2023/08/29 09:32:43;;;;;;;6.28;3.72;;;;;;;32.04;27.70;94089.97;5067062;28;20028;-87
2023/08/29 09:35:20;;;;;;;6.18;4.40;;;;;;;32.04;27.94;94103.44;5067295;28;20569;-87
2023/08/29 09:37:54;;;;;;;6.85;3.83;;;;;;;31.93;27.66;94099.88;5067121;28;20021;-88
2023/08/29 09:40:23;;;;;;;6.03;3.80;;;;;;;31.83;27.66;94101.22;5067039;28;20039;-87
2023/08/29 09:42:55;;;;;;;5.65;3.80;;;;;;;31.65;28.17;94086.38;5066517;28;20484;-88
2023/08/29 09:45:21;;;;;;;;;;;;;;;31.58;27.68;94095.81;5067112;28;20449;-88
2023/08/29 09:47:47;;;;;;;4.50;3.42;;;;;;;31.44;28.20;94090.59;5066221;28;19913;-89
2023/08/29 09:50:12;;;;;;;5.75;3.55;;;;;;;31.37;28.22;94099.22;5068525;28;20029;-89
2023/08/29 09:52:39;;;;;;;6.18;4.35;;;;;;;31.29;28.78;94088.03;5067782;28;20422;-87
2023/08/29 09:55:07;;;;;;;7.03;4.15;;;;;;;31.29;28.72;94088.03;5066425;28;20408;-86
2023/08/29 09:57:35;;;;;;;5.10;3.83;;;;;;;31.24;28.74;94096.78;5066125;28;20127;-87
2023/08/29 10:00:04;;;;;;;7.47;3.78;;;;;;;31.09;28.71;94100.66;5066531;28;20130;-87
2023/08/29 10:02:30;;;;;;;4.68;3.33;;;;;;;30.80;28.86;94101.31;5049876;28;20048;-88
2023/08/29 10:05:04;;;;;;;11.05;3.92;;;;;;;30.65;29.18;94090.94;5049817;28;20480;-89
2023/08/29 10:07:42;;;;;;;4.25;3.72;;;;;;;30.61;29.47;94084.19;5050683;28;20090;-88
2023/08/29 10:10:08;;;;;;;5.70;3.78;;;;;;;30.64;29.71;94085.84;5066545;28;20074;-87
2023/08/29 10:12:34;;;;;;;8.40;3.33;;;;;;;30.62;29.36;94091.34;5066510;28;20027;-88
2023/08/29 10:15:01;;;;;;;8.02;3.63;;;;;;;30.64;29.52;94083.78;5066423;28;20028;-87
2023/08/29 10:17:26;;;;;;;8.98;3.85;;;;;;;30.68;29.54;94080.47;5068279;28;20478;-87
2023/08/29 10:19:52;;;;;;;8.55;4.13;;;;;;;30.86;29.45;94079.09;5067521;28;20124;-87
2023/08/29 10:22:18;;;;;;;5.72;3.53;;;;;;;30.92;29.22;94073.88;5051518;28;20033;-88
2023/08/29 10:24:45;;;;;;;7.28;3.83;;;;;;;30.81;29.21;94071.63;5066808;28;20325;-89
2023/08/29 10:27:11;;;;;;;5.57;3.78;;;;;;;30.69;29.16;94069.94;5050259;28;20041;-88
2023/08/29 10:29:37;;;;;;;6.97;3.80;;;;;;;30.75;29.48;94053.38;5050149;28;20031;-88
2023/08/29 10:32:04;;;;;;;4.88;3.67;;;;;;;30.90;29.61;94067.28;5065658;28;20468;-88
2023/08/29 10:34:29;;;;;;;6.40;3.85;;;;;;;30.93;29.78;94069.69;5065802;28;20475;-87
2023/08/29 10:36:56;;;;;;;5.20;4.10;;;;;;;30.91;28.97;94071.63;5066354;28;20054;-89
2023/08/29 10:39:22;;;;;;;4.82;3.97;;;;;;;30.81;29.07;94063.09;5048287;28;20024;-88
2023/08/29 10:41:48;;;;;;;6.35;3.75;;;;;;;30.56;29.66;94051.19;5049277;28;20076;-88
2023/08/29 10:44:32;;;;;;;6.40;3.60;;;;;;;30.39;29.84;94058.47;5066210;28;20025;-89
2023/08/29 10:47:16;;;;;;;7.88;3.60;;;;;;;30.22;30.32;94055.66;5065592;28;20044;-86
2023/08/29 10:49:44;;;;;;;10.77;4.32;;;;;;;30.32;30.41;94052.88;5067723;28;20550;-90
2023/08/29 10:52:13;;;;;;;5.82;3.90;;;;;;;30.21;30.30;94044.91;5068632;28;20025;-83
2023/08/29 10:54:40;;;;;;;6.10;4.38;;;;;;;30.13;30.74;94048.63;5061873;28;20103;-81
2023/08/29 10:57:25;;;;;;;4.65;3.70;;;;;;;30.14;30.97;94057.88;5066504;28;20024;-82
2023/08/29 10:59:52;;;;;;;5.43;3.90;;;;;;;30.13;30.62;94056.38;5065966;28;20028;-82
2023/08/29 11:02:25;;;;;;;6.10;3.83;;;;;;;29.96;30.81;94054.31;5065247;28;20514;-82
2023/08/29 11:04:52;;;;;;;8.10;3.90;;;;;;;29.78;31.45;94039.44;5065019;28;20059;-82
2023/08/29 11:07:25;;;;;;;5.30;4.10;;;;;;;29.81;31.28;94041.09;5067555;28;20032;-82
2023/08/29 11:10:13;;;;;;;6.45;4.40;;;;;;;29.92;31.48;94036.22;5069190;28;20056;-82
2023/08/29 11:13:11;;;;;;;6.07;4.32;;;;;;;29.97;31.73;94040.88;5069254;28;20035;-82
2023/08/29 11:16:03;;;;;;;6.72;4.03;;;;;;;29.97;31.54;94038.81;5067558;28;20051;-82
2023/08/29 11:18:35;;;;;;;6.68;4.18;;;;;;;29.85;31.72;94041.41;5066102;28;20490;-82
2023/08/29 11:21:06;;;;;;;7.25;3.95;;;;;;;29.88;31.63;94040.25;5069437;28;20036;-82
2023/08/29 11:23:40;;;;;;;6.80;3.83;;;;;;;29.71;31.75;94022.56;5075751;28;20075;-82
2023/08/29 11:26:06;;;;;;;6.18;3.85;;;;;;;29.69;31.92;94033.69;5071631;28;20103;-82
2023/08/29 11:28:33;;;;;;;7.25;4.20;;;;;;;29.47;31.95;94019.22;5088981;28;20108;-82
2023/08/29 11:30:59;;;;;;;5.30;3.30;;;;;;;29.47;32.24;94030.53;5088922;28;20032;-81
2023/08/29 11:33:32;;;;;;;6.03;3.83;;;;;;;29.26;32.23;94025.31;5071057;28;20020;-83